createdAt,value
2022-09-13T00:00:35.805Z,14.87
2022-09-13T00:05:38.072Z,14.91
2022-09-13T00:10:40.747Z,14.97
2022-09-13T00:15:46.748Z,14.93
2022-09-13T00:20:48.365Z,14.93
2022-09-13T00:25:49.985Z,14.88
2022-09-13T00:30:52.257Z,14.86
2022-09-13T00:35:53.873Z,14.84
2022-09-13T00:40:55.493Z,14.84
2022-09-13T00:45:57.211Z,14.83
2022-09-13T00:50:58.906Z,14.79
2022-09-13T00:56:09.735Z,15.07
2022-09-13T01:01:12.561Z,15.04
2022-09-13T01:06:16.873Z,14.99
2022-09-13T01:11:25.052Z,15.03
2022-09-13T01:16:26.979Z,15.04
2022-09-13T01:21:50.310Z,14.99
2022-09-13T01:26:59.693Z,14.96
2022-09-13T01:32:36.434Z,15.20
2022-09-13T01:37:43.800Z,15.23
2022-09-13T01:42:55.368Z,15.17
2022-09-13T01:47:58.644Z,15.32
2022-09-13T01:53:01.220Z,15.28
2022-09-13T01:58:05.150Z,15.25
2022-09-13T02:03:36.839Z,14.85
2022-09-13T02:08:43.833Z,14.89
2022-09-13T02:13:49.549Z,15.10
2022-09-13T02:18:53.477Z,15.00
2022-09-13T02:24:00.493Z,15.07
2022-09-13T02:29:04.008Z,15.10
2022-09-13T02:34:09.279Z,15.11
2022-09-13T02:39:15.398Z,15.23
2022-09-13T02:44:23.103Z,15.73
2022-09-13T02:49:29.942Z,15.75
2022-09-13T02:54:51.739Z,15.85
2022-09-13T02:59:53.357Z,15.96
2022-09-13T03:04:55.519Z,16.11
2022-09-13T03:10:04.837Z,16.20
2022-09-13T03:15:12.348Z,16.30
2022-09-13T03:20:24.679Z,16.28
2022-09-13T03:25:48.311Z,16.11
2022-09-13T03:30:57.993Z,15.85
2022-09-13T03:36:10.222Z,15.70
2022-09-13T03:41:14.706Z,15.61
2022-09-13T03:46:21.220Z,15.55
2022-09-13T03:51:22.992Z,15.52
2022-09-13T03:56:24.645Z,15.52
2022-09-13T04:01:26.355Z,15.54
2022-09-13T04:06:28.041Z,15.53
2022-09-13T04:11:30.145Z,15.50
2022-09-13T04:16:31.778Z,15.48
2022-09-13T04:21:33.437Z,15.52
2022-09-13T04:26:35.618Z,15.50
2022-09-13T04:31:37.531Z,15.52
2022-09-13T04:36:39.615Z,15.53
2022-09-13T04:41:48.227Z,15.61
2022-09-13T04:46:50.491Z,15.67
2022-09-13T04:51:52.135Z,15.72
2022-09-13T04:56:54.602Z,15.79
2022-09-13T05:01:56.326Z,15.80
2022-09-13T05:06:58.926Z,15.82
2022-09-13T05:12:00.573Z,15.84
2022-09-13T05:17:02.215Z,15.88
2022-09-13T05:22:03.860Z,15.95
2022-09-13T05:27:05.668Z,15.98
2022-09-13T05:32:07.286Z,15.98
2022-09-13T05:37:08.923Z,16.04
2022-09-13T05:42:10.521Z,16.09
2022-09-13T05:47:13.881Z,16.12
2022-09-13T05:52:15.511Z,16.20
2022-09-13T05:57:17.187Z,16.26
2022-09-13T06:02:18.850Z,16.31
2022-09-13T06:07:20.517Z,16.30
2022-09-13T06:12:22.148Z,16.35
2022-09-13T06:17:23.750Z,16.41
2022-09-13T06:22:25.385Z,16.47
2022-09-13T06:27:27.006Z,16.53
2022-09-13T06:32:28.611Z,16.55
2022-09-13T06:37:30.234Z,16.59
2022-09-13T06:42:34.670Z,16.66
2022-09-13T06:47:36.932Z,16.73
2022-09-13T06:52:38.718Z,16.79
2022-09-13T06:57:40.337Z,16.71
2022-09-13T07:02:41.986Z,16.73
2022-09-13T07:07:43.617Z,16.84
2022-09-13T07:12:45.429Z,17.01
2022-09-13T07:17:47.074Z,17.21
2022-09-13T07:22:48.700Z,17.36
2022-09-13T07:27:50.333Z,17.49
2022-09-13T07:32:51.962Z,17.59
2022-09-13T07:37:53.586Z,17.68
2022-09-13T07:42:55.191Z,17.70
2022-09-13T07:47:56.812Z,17.78
2022-09-13T07:52:58.430Z,17.91
2022-09-13T07:58:00.319Z,17.99
2022-09-13T08:03:01.957Z,18.06
2022-09-13T08:08:03.621Z,17.86
2022-09-13T08:13:05.285Z,17.60
2022-09-13T08:18:07.585Z,17.33
2022-09-13T08:23:09.699Z,17.00
2022-09-13T08:28:15.524Z,16.78
2022-09-13T08:33:17.137Z,16.63
2022-09-13T08:38:19.232Z,16.57
2022-09-13T08:43:31.468Z,16.60
2022-09-13T08:48:37.305Z,16.57
2022-09-13T08:53:44.572Z,16.62
2022-09-13T08:59:08.889Z,16.69
2022-09-13T09:04:16.532Z,16.89
2022-09-13T09:09:21.757Z,16.95
2022-09-13T09:14:31.129Z,16.92
2022-09-13T09:20:03.425Z,16.83
2022-09-13T09:25:05.599Z,16.78
2022-09-13T09:30:13.533Z,17.01
2022-09-13T09:35:50.775Z,17.02
2022-09-13T09:40:52.428Z,17.06
2022-09-13T09:45:54.110Z,17.07
2022-09-13T09:50:58.414Z,17.15
2022-09-13T09:56:12.680Z,17.08
2022-09-13T10:01:19.606Z,17.19
2022-09-13T10:06:22.881Z,17.12
2022-09-13T10:11:26.730Z,17.05
2022-09-13T10:16:29.823Z,17.00
2022-09-13T10:21:31.485Z,17.00
2022-09-13T10:26:33.152Z,17.00
2022-09-13T10:31:36.809Z,17.27
2022-09-13T10:36:53.992Z,17.29
2022-09-13T10:42:04.020Z,17.25
2022-09-13T10:47:07.500Z,17.32
2022-09-13T10:52:27.543Z,17.49
2022-09-13T10:57:36.525Z,17.59
2022-09-13T11:02:59.731Z,17.61
2022-09-13T11:08:11.324Z,17.70
2022-09-13T11:13:21.889Z,17.73
2022-09-13T11:18:32.462Z,17.73
2022-09-13T11:23:43.110Z,17.74
2022-09-13T11:29:21.964Z,17.81
2022-09-13T11:34:37.637Z,17.90
2022-09-13T11:39:46.298Z,17.90
2022-09-13T11:45:01.529Z,17.94
2022-09-13T11:50:18.268Z,18.13
2022-09-13T11:55:38.191Z,18.31
2022-09-13T12:00:57.337Z,18.41
2022-09-13T12:06:12.598Z,18.57
2022-09-13T12:11:23.133Z,18.52
2022-09-13T12:16:38.857Z,18.46
2022-09-13T12:21:41.067Z,18.63
2022-09-13T12:27:08.995Z,18.57
2022-09-13T12:32:10.692Z,18.79
2022-09-13T12:37:18.333Z,18.81
2022-09-13T12:42:25.539Z,18.88
2022-09-13T12:47:51.728Z,18.99
2022-09-13T12:53:17.503Z,19.92
2022-09-13T12:58:38.096Z,19.68
2022-09-13T13:03:46.507Z,19.70
2022-09-13T13:08:52.694Z,19.81
2022-09-13T13:14:00.550Z,19.83
2022-09-13T13:19:06.618Z,19.85
2022-09-13T13:24:17.350Z,20.20
2022-09-13T13:29:29.921Z,20.10
2022-09-13T13:34:43.595Z,20.33
2022-09-13T13:39:48.858Z,20.61
2022-09-13T13:44:53.380Z,20.64
2022-09-13T13:50:16.336Z,21.15
2022-09-13T13:55:44.574Z,21.09
2022-09-13T14:00:48.162Z,20.77
2022-09-13T14:06:27.329Z,20.54
2022-09-13T14:11:47.783Z,20.42
2022-09-13T14:17:20.125Z,20.53
2022-09-13T14:22:25.225Z,20.85
2022-09-13T14:27:29.680Z,21.02
2022-09-13T14:32:41.859Z,20.94
2022-09-13T14:37:43.706Z,21.12
2022-09-13T14:42:47.153Z,21.34
2022-09-13T14:47:55.982Z,21.46
2022-09-13T14:53:02.189Z,21.49
2022-09-13T14:58:07.979Z,21.39
2022-09-13T15:03:14.618Z,21.96
2022-09-13T15:08:25.856Z,21.85
2022-09-13T15:13:27.463Z,21.54
2022-09-13T15:18:36.631Z,21.72
2022-09-13T15:23:40.071Z,21.55
2022-09-13T15:28:41.503Z,21.50
2022-09-13T15:33:47.420Z,21.56
2022-09-13T15:39:09.068Z,21.59
2022-09-13T15:44:10.688Z,22.19
2022-09-13T15:49:15.443Z,22.42
2022-09-13T15:54:17.326Z,22.34
2022-09-13T15:59:20.942Z,22.26
2022-09-13T16:04:22.915Z,21.95
2022-09-13T16:09:24.887Z,21.81
2022-09-13T16:14:26.497Z,21.51
2022-09-13T16:19:28.307Z,21.24
2022-09-13T16:24:29.990Z,20.98
2022-09-13T16:29:31.597Z,20.86
2022-09-13T16:34:33.225Z,20.76
2022-09-13T16:39:34.833Z,20.80
2022-09-13T16:44:36.679Z,20.79
2022-09-13T16:49:38.311Z,20.74
2022-09-13T16:54:40.614Z,20.72
2022-09-13T16:59:42.430Z,20.62
2022-09-13T17:04:44.133Z,20.60
2022-09-13T17:09:45.771Z,20.41
2022-09-13T17:14:47.516Z,20.19
2022-09-13T17:19:49.990Z,20.00
2022-09-13T17:24:51.625Z,19.90
2022-09-13T17:29:53.643Z,19.74
2022-09-13T17:34:55.300Z,19.57
2022-09-13T17:39:56.990Z,19.43
2022-09-13T17:44:58.682Z,19.21
2022-09-13T17:50:00.317Z,19.09
2022-09-13T17:55:02.637Z,18.88
2022-09-13T18:00:05.768Z,18.74
2022-09-13T18:05:12.988Z,18.56
2022-09-13T18:10:40.342Z,18.43
2022-09-13T18:15:37.139Z,18.32
2022-09-13T18:20:40.808Z,18.11
2022-09-13T18:25:42.642Z,18.01
2022-09-13T18:30:51.871Z,17.93
2022-09-13T18:36:01.172Z,17.83
2022-09-13T18:41:10.457Z,17.75
2022-09-13T18:46:14.404Z,17.66
2022-09-13T18:51:18.494Z,17.51
2022-09-13T18:56:20.641Z,17.45
2022-09-13T19:01:28.446Z,17.36
2022-09-13T19:06:32.341Z,17.21
2022-09-13T19:11:53.325Z,17.09
2022-09-13T19:16:56.414Z,16.98
2022-09-13T19:21:58.093Z,16.94
2022-09-13T19:27:01.430Z,16.78
2022-09-13T19:32:03.253Z,16.78
2022-09-13T19:37:04.922Z,16.69
2022-09-13T19:42:08.873Z,16.62
2022-09-13T19:52:36.257Z,16.48
2022-09-13T19:57:41.869Z,16.41
2022-09-13T20:02:47.916Z,16.33
2022-09-13T20:07:52.546Z,16.16
2022-09-13T20:12:54.971Z,16.07
2022-09-13T20:18:02.199Z,16.01
2022-09-13T20:23:03.958Z,15.94
2022-09-13T20:28:05.712Z,15.86
2022-09-13T20:33:07.368Z,15.89
2022-09-13T20:38:30.347Z,16.00
2022-09-13T20:43:33.530Z,15.98
2022-09-13T20:48:36.483Z,15.96
2022-09-13T20:53:39.618Z,15.89
2022-09-13T20:58:44.373Z,15.85
2022-09-13T21:03:49.251Z,15.79
2022-09-13T21:08:52.113Z,15.74
2022-09-13T21:13:55.567Z,15.73
2022-09-13T21:18:57.270Z,15.58
2022-09-13T21:24:00.406Z,15.51
2022-09-13T21:29:02.151Z,15.45
2022-09-13T21:34:05.560Z,15.38
2022-09-13T21:39:07.181Z,15.31
2022-09-13T21:44:09.173Z,15.21
2022-09-13T21:49:12.488Z,15.15
2022-09-13T21:54:18.355Z,15.12
2022-09-13T21:59:20.672Z,15.04
2022-09-13T22:04:25.613Z,15.02
2022-09-13T22:09:28.657Z,14.98
2022-09-13T22:14:30.276Z,14.94
2022-09-13T22:19:32.153Z,14.88
2022-09-13T22:24:35.693Z,14.78
2022-09-13T22:29:37.377Z,14.73
2022-09-13T22:34:40.722Z,14.66
2022-09-13T22:39:42.417Z,14.66
2022-09-13T22:44:44.055Z,14.58
2022-09-13T22:49:45.654Z,14.62
2022-09-13T22:54:50.717Z,14.57
2022-09-13T22:59:52.653Z,14.49
2022-09-13T23:04:54.517Z,14.45
2022-09-13T23:09:56.244Z,14.36
2022-09-13T23:14:57.859Z,14.23
2022-09-13T23:19:59.453Z,14.22
2022-09-13T23:25:01.063Z,14.08
2022-09-13T23:30:02.695Z,13.96
2022-09-13T23:35:04.491Z,14.03
2022-09-13T23:40:06.637Z,13.90
2022-09-13T23:45:08.596Z,13.83
2022-09-13T23:50:10.269Z,13.81
2022-09-13T23:55:14.242Z,13.73
